sensor_id;sensor_type;location;lat;lon;timestamp;temperature;humidity
6102;DHT22;3081;50.584;7.032;2023-09-19T00:01:33;15.30;99.90
6102;DHT22;3081;50.584;7.032;2023-09-19T00:04:02;15.20;99.90
6102;DHT22;3081;50.584;7.032;2023-09-19T00:06:29;15.20;99.90
6102;DHT22;3081;50.584;7.032;2023-09-19T00:08:57;15.20;99.90
6102;DHT22;3081;50.584;7.032;2023-09-19T00:11:26;15.20;99.90
6102;DHT22;3081;50.584;7.032;2023-09-19T00:13:53;15.20;99.90
6102;DHT22;3081;50.584;7.032;2023-09-19T00:16:20;15.20;99.90
6102;DHT22;3081;50.584;7.032;2023-09-19T00:18:47;15.20;99.90
6102;DHT22;3081;50.584;7.032;2023-09-19T00:21:16;15.20;99.90
6102;DHT22;3081;50.584;7.032;2023-09-19T00:23:45;15.20;99.90
6102;DHT22;3081;50.584;7.032;2023-09-19T00:26:12;15.20;99.90
6102;DHT22;3081;50.584;7.032;2023-09-19T00:28:39;15.20;99.90
6102;DHT22;3081;50.584;7.032;2023-09-19T00:31:07;15.20;99.90
6102;DHT22;3081;50.584;7.032;2023-09-19T00:33:35;15.20;99.90
6102;DHT22;3081;50.584;7.032;2023-09-19T00:36:02;15.20;99.90
6102;DHT22;3081;50.584;7.032;2023-09-19T00:38:32;15.30;99.90
6102;DHT22;3081;50.584;7.032;2023-09-19T00:40:59;15.30;99.90
6102;DHT22;3081;50.584;7.032;2023-09-19T00:43:26;15.30;99.90
6102;DHT22;3081;50.584;7.032;2023-09-19T00:45:55;15.30;99.90
6102;DHT22;3081;50.584;7.032;2023-09-19T00:48:23;15.20;99.90
6102;DHT22;3081;50.584;7.032;2023-09-19T00:50:55;15.20;99.90
6102;DHT22;3081;50.584;7.032;2023-09-19T00:53:24;15.30;99.90
6102;DHT22;3081;50.584;7.032;2023-09-19T00:55:52;15.30;99.90
6102;DHT22;3081;50.584;7.032;2023-09-19T00:58:19;15.30;99.90
6102;DHT22;3081;50.584;7.032;2023-09-19T01:00:47;15.40;99.90
6102;DHT22;3081;50.584;7.032;2023-09-19T01:03:15;15.40;99.90
6102;DHT22;3081;50.584;7.032;2023-09-19T01:05:42;15.50;99.90
6102;DHT22;3081;50.584;7.032;2023-09-19T01:08:09;15.50;99.90
6102;DHT22;3081;50.584;7.032;2023-09-19T01:10:41;15.60;99.90
6102;DHT22;3081;50.584;7.032;2023-09-19T01:13:18;15.70;99.90
6102;DHT22;3081;50.584;7.032;2023-09-19T01:15:54;15.70;99.90
6102;DHT22;3081;50.584;7.032;2023-09-19T01:18:30;15.70;99.90
6102;DHT22;3081;50.584;7.032;2023-09-19T01:21:07;15.70;99.90
6102;DHT22;3081;50.584;7.032;2023-09-19T01:23:53;15.50;99.90
6102;DHT22;3081;50.584;7.032;2023-09-19T01:26:43;15.30;99.90
6102;DHT22;3081;50.584;7.032;2023-09-19T01:29:26;15.10;99.90
6102;DHT22;3081;50.584;7.032;2023-09-19T01:32:04;15.10;99.90
6102;DHT22;3081;50.584;7.032;2023-09-19T01:34:44;15.10;99.90
6102;DHT22;3081;50.584;7.032;2023-09-19T01:37:12;15.10;99.90
6102;DHT22;3081;50.584;7.032;2023-09-19T01:39:39;15.10;99.90
6102;DHT22;3081;50.584;7.032;2023-09-19T01:42:14;15.10;99.90
6102;DHT22;3081;50.584;7.032;2023-09-19T01:44:53;15.10;99.90
6102;DHT22;3081;50.584;7.032;2023-09-19T01:47:26;15.10;99.90
6102;DHT22;3081;50.584;7.032;2023-09-19T01:49:58;15.10;99.90
6102;DHT22;3081;50.584;7.032;2023-09-19T01:52:30;15.10;99.90
6102;DHT22;3081;50.584;7.032;2023-09-19T01:55:05;15.20;99.90
6102;DHT22;3081;50.584;7.032;2023-09-19T01:57:35;15.10;99.90
6102;DHT22;3081;50.584;7.032;2023-09-19T02:00:05;15.10;99.90
6102;DHT22;3081;50.584;7.032;2023-09-19T02:02:37;15.10;99.90
6102;DHT22;3081;50.584;7.032;2023-09-19T02:05:04;15.10;99.90
6102;DHT22;3081;50.584;7.032;2023-09-19T02:07:32;15.10;99.90
6102;DHT22;3081;50.584;7.032;2023-09-19T02:09:59;14.90;99.90
6102;DHT22;3081;50.584;7.032;2023-09-19T02:12:26;14.80;99.90
6102;DHT22;3081;50.584;7.032;2023-09-19T02:14:54;14.70;99.90
6102;DHT22;3081;50.584;7.032;2023-09-19T02:17:21;14.60;99.90
6102;DHT22;3081;50.584;7.032;2023-09-19T02:19:50;14.60;99.90
6102;DHT22;3081;50.584;7.032;2023-09-19T02:22:17;14.60;99.90
6102;DHT22;3081;50.584;7.032;2023-09-19T02:24:44;14.50;99.90
6102;DHT22;3081;50.584;7.032;2023-09-19T02:27:11;14.50;99.90
6102;DHT22;3081;50.584;7.032;2023-09-19T02:29:41;14.40;99.90
6102;DHT22;3081;50.584;7.032;2023-09-19T02:32:08;14.40;99.90
6102;DHT22;3081;50.584;7.032;2023-09-19T02:34:36;14.40;99.90
6102;DHT22;3081;50.584;7.032;2023-09-19T02:37:06;14.30;99.90
6102;DHT22;3081;50.584;7.032;2023-09-19T02:39:34;14.30;99.90
6102;DHT22;3081;50.584;7.032;2023-09-19T02:42:01;14.40;99.90
6102;DHT22;3081;50.584;7.032;2023-09-19T02:44:29;14.30;99.90
6102;DHT22;3081;50.584;7.032;2023-09-19T02:46:57;14.30;99.90
6102;DHT22;3081;50.584;7.032;2023-09-19T02:49:24;14.20;99.90
6102;DHT22;3081;50.584;7.032;2023-09-19T02:51:51;14.20;99.90
6102;DHT22;3081;50.584;7.032;2023-09-19T02:54:19;14.20;99.90
6102;DHT22;3081;50.584;7.032;2023-09-19T02:56:47;14.20;99.90
6102;DHT22;3081;50.584;7.032;2023-09-19T02:59:15;14.30;99.90
6102;DHT22;3081;50.584;7.032;2023-09-19T03:01:43;14.20;99.90
6102;DHT22;3081;50.584;7.032;2023-09-19T03:04:13;14.20;99.90
6102;DHT22;3081;50.584;7.032;2023-09-19T03:06:45;14.20;99.90
6102;DHT22;3081;50.584;7.032;2023-09-19T03:09:14;14.20;99.90
6102;DHT22;3081;50.584;7.032;2023-09-19T03:11:43;14.30;99.90
6102;DHT22;3081;50.584;7.032;2023-09-19T03:14:12;14.20;99.90
6102;DHT22;3081;50.584;7.032;2023-09-19T03:16:40;14.10;99.90
6102;DHT22;3081;50.584;7.032;2023-09-19T03:19:07;14.10;99.90
6102;DHT22;3081;50.584;7.032;2023-09-19T03:21:36;14.10;99.90
6102;DHT22;3081;50.584;7.032;2023-09-19T03:24:05;14.20;99.90
6102;DHT22;3081;50.584;7.032;2023-09-19T03:26:32;14.10;99.90
6102;DHT22;3081;50.584;7.032;2023-09-19T03:29:03;14.10;99.90
6102;DHT22;3081;50.584;7.032;2023-09-19T03:31:33;14.00;99.90
6102;DHT22;3081;50.584;7.032;2023-09-19T03:34:02;14.00;99.90
6102;DHT22;3081;50.584;7.032;2023-09-19T03:36:30;13.90;99.90
6102;DHT22;3081;50.584;7.032;2023-09-19T03:38:57;13.90;99.90
6102;DHT22;3081;50.584;7.032;2023-09-19T03:41:24;13.80;99.90
6102;DHT22;3081;50.584;7.032;2023-09-19T03:43:51;13.90;99.90
6102;DHT22;3081;50.584;7.032;2023-09-19T03:46:19;13.80;99.90
6102;DHT22;3081;50.584;7.032;2023-09-19T03:48:46;13.80;99.90
6102;DHT22;3081;50.584;7.032;2023-09-19T03:51:13;13.80;99.90
6102;DHT22;3081;50.584;7.032;2023-09-19T03:53:40;13.80;99.90
6102;DHT22;3081;50.584;7.032;2023-09-19T03:56:07;13.80;99.90
6102;DHT22;3081;50.584;7.032;2023-09-19T03:58:34;13.80;99.90
6102;DHT22;3081;50.584;7.032;2023-09-19T04:01:04;13.80;99.90
6102;DHT22;3081;50.584;7.032;2023-09-19T04:03:33;13.80;99.90
6102;DHT22;3081;50.584;7.032;2023-09-19T04:06:11;13.90;99.90
6102;DHT22;3081;50.584;7.032;2023-09-19T04:08:38;13.80;99.90
6102;DHT22;3081;50.584;7.032;2023-09-19T04:11:05;13.70;99.90
6102;DHT22;3081;50.584;7.032;2023-09-19T04:13:32;13.70;99.90
6102;DHT22;3081;50.584;7.032;2023-09-19T04:15:59;13.70;99.90
6102;DHT22;3081;50.584;7.032;2023-09-19T04:18:26;13.70;99.90
6102;DHT22;3081;50.584;7.032;2023-09-19T04:20:54;13.70;99.90
6102;DHT22;3081;50.584;7.032;2023-09-19T04:23:21;13.70;99.90
6102;DHT22;3081;50.584;7.032;2023-09-19T04:25:48;13.80;99.90
6102;DHT22;3081;50.584;7.032;2023-09-19T04:28:16;13.70;99.90
6102;DHT22;3081;50.584;7.032;2023-09-19T04:30:43;13.70;99.90
6102;DHT22;3081;50.584;7.032;2023-09-19T04:33:10;13.80;99.90
6102;DHT22;3081;50.584;7.032;2023-09-19T04:35:40;13.80;99.90
6102;DHT22;3081;50.584;7.032;2023-09-19T04:38:09;13.70;99.90
6102;DHT22;3081;50.584;7.032;2023-09-19T04:40:37;13.70;99.90
6102;DHT22;3081;50.584;7.032;2023-09-19T04:43:05;13.70;99.90
6102;DHT22;3081;50.584;7.032;2023-09-19T04:45:33;13.70;99.90
6102;DHT22;3081;50.584;7.032;2023-09-19T04:48:00;13.70;99.90
6102;DHT22;3081;50.584;7.032;2023-09-19T04:50:28;13.60;99.90
6102;DHT22;3081;50.584;7.032;2023-09-19T04:52:55;13.50;99.90
6102;DHT22;3081;50.584;7.032;2023-09-19T04:55:23;13.50;99.90
6102;DHT22;3081;50.584;7.032;2023-09-19T04:57:51;13.50;99.90
6102;DHT22;3081;50.584;7.032;2023-09-19T05:00:20;13.50;99.90
6102;DHT22;3081;50.584;7.032;2023-09-19T05:02:50;13.40;99.90
6102;DHT22;3081;50.584;7.032;2023-09-19T05:05:18;13.40;99.90
6102;DHT22;3081;50.584;7.032;2023-09-19T05:07:45;13.30;99.90
6102;DHT22;3081;50.584;7.032;2023-09-19T05:10:13;13.30;99.90
6102;DHT22;3081;50.584;7.032;2023-09-19T05:12:41;13.30;99.90
6102;DHT22;3081;50.584;7.032;2023-09-19T05:15:10;13.30;99.90
6102;DHT22;3081;50.584;7.032;2023-09-19T05:17:37;13.30;99.90
6102;DHT22;3081;50.584;7.032;2023-09-19T05:20:06;13.30;99.90
6102;DHT22;3081;50.584;7.032;2023-09-19T05:22:46;13.20;99.90
6102;DHT22;3081;50.584;7.032;2023-09-19T05:25:13;13.20;99.90
6102;DHT22;3081;50.584;7.032;2023-09-19T05:27:43;13.20;99.90
6102;DHT22;3081;50.584;7.032;2023-09-19T05:30:11;13.20;99.90
6102;DHT22;3081;50.584;7.032;2023-09-19T05:32:39;13.20;99.90
6102;DHT22;3081;50.584;7.032;2023-09-19T05:35:06;13.30;99.90
6102;DHT22;3081;50.584;7.032;2023-09-19T05:37:35;13.30;99.90
6102;DHT22;3081;50.584;7.032;2023-09-19T05:40:02;13.30;99.90
6102;DHT22;3081;50.584;7.032;2023-09-19T05:42:35;13.40;99.90
6102;DHT22;3081;50.584;7.032;2023-09-19T05:45:04;13.40;99.90
6102;DHT22;3081;50.584;7.032;2023-09-19T05:47:31;13.50;99.90
6102;DHT22;3081;50.584;7.032;2023-09-19T05:49:58;13.50;99.90
6102;DHT22;3081;50.584;7.032;2023-09-19T05:52:25;13.50;99.90
6102;DHT22;3081;50.584;7.032;2023-09-19T05:54:52;13.60;99.90
6102;DHT22;3081;50.584;7.032;2023-09-19T05:57:20;13.60;99.90
6102;DHT22;3081;50.584;7.032;2023-09-19T05:59:47;13.70;99.90
6102;DHT22;3081;50.584;7.032;2023-09-19T06:02:17;13.60;99.90
6102;DHT22;3081;50.584;7.032;2023-09-19T06:04:44;13.70;99.90
6102;DHT22;3081;50.584;7.032;2023-09-19T06:07:11;13.70;99.90
6102;DHT22;3081;50.584;7.032;2023-09-19T06:09:38;13.70;99.90
6102;DHT22;3081;50.584;7.032;2023-09-19T06:12:06;13.80;99.90
6102;DHT22;3081;50.584;7.032;2023-09-19T06:14:33;13.90;99.90
6102;DHT22;3081;50.584;7.032;2023-09-19T06:17:00;13.90;99.90
6102;DHT22;3081;50.584;7.032;2023-09-19T06:19:28;13.90;99.90
6102;DHT22;3081;50.584;7.032;2023-09-19T06:21:55;13.90;99.90
6102;DHT22;3081;50.584;7.032;2023-09-19T06:24:22;13.90;99.90
6102;DHT22;3081;50.584;7.032;2023-09-19T06:26:49;13.90;99.90
6102;DHT22;3081;50.584;7.032;2023-09-19T06:29:16;14.00;99.90
6102;DHT22;3081;50.584;7.032;2023-09-19T06:31:43;14.00;99.90
6102;DHT22;3081;50.584;7.032;2023-09-19T06:34:10;14.00;99.90
6102;DHT22;3081;50.584;7.032;2023-09-19T06:36:38;14.00;99.90
6102;DHT22;3081;50.584;7.032;2023-09-19T06:39:06;14.10;99.90
6102;DHT22;3081;50.584;7.032;2023-09-19T06:41:36;14.10;99.90
6102;DHT22;3081;50.584;7.032;2023-09-19T06:44:04;14.10;99.90
6102;DHT22;3081;50.584;7.032;2023-09-19T06:46:31;14.20;99.90
6102;DHT22;3081;50.584;7.032;2023-09-19T06:49:00;14.30;99.90
6102;DHT22;3081;50.584;7.032;2023-09-19T06:51:31;14.30;99.90
6102;DHT22;3081;50.584;7.032;2023-09-19T06:54:01;14.30;99.90
6102;DHT22;3081;50.584;7.032;2023-09-19T06:56:30;14.30;99.90
6102;DHT22;3081;50.584;7.032;2023-09-19T06:58:57;14.40;99.90
6102;DHT22;3081;50.584;7.032;2023-09-19T07:01:24;14.40;99.90
6102;DHT22;3081;50.584;7.032;2023-09-19T07:03:51;14.50;99.90
6102;DHT22;3081;50.584;7.032;2023-09-19T07:06:18;14.50;99.90
6102;DHT22;3081;50.584;7.032;2023-09-19T07:08:45;14.50;99.90
6102;DHT22;3081;50.584;7.032;2023-09-19T07:11:14;14.60;99.90
6102;DHT22;3081;50.584;7.032;2023-09-19T07:13:41;14.70;99.90
6102;DHT22;3081;50.584;7.032;2023-09-19T07:16:09;14.80;99.90
6102;DHT22;3081;50.584;7.032;2023-09-19T07:18:52;14.80;99.90
6102;DHT22;3081;50.584;7.032;2023-09-19T07:21:22;14.80;99.90
6102;DHT22;3081;50.584;7.032;2023-09-19T07:23:49;14.80;99.90
6102;DHT22;3081;50.584;7.032;2023-09-19T07:26:17;14.90;99.90
6102;DHT22;3081;50.584;7.032;2023-09-19T07:28:44;14.80;99.90
6102;DHT22;3081;50.584;7.032;2023-09-19T07:31:11;14.80;99.90
6102;DHT22;3081;50.584;7.032;2023-09-19T07:33:40;14.90;99.90
6102;DHT22;3081;50.584;7.032;2023-09-19T07:36:10;15.10;99.90
6102;DHT22;3081;50.584;7.032;2023-09-19T07:38:39;15.00;99.90
6102;DHT22;3081;50.584;7.032;2023-09-19T07:41:06;15.10;99.90
6102;DHT22;3081;50.584;7.032;2023-09-19T07:43:35;15.10;99.90
6102;DHT22;3081;50.584;7.032;2023-09-19T07:46:04;15.10;99.90
6102;DHT22;3081;50.584;7.032;2023-09-19T07:48:33;15.10;99.90
6102;DHT22;3081;50.584;7.032;2023-09-19T07:51:05;15.30;99.90
6102;DHT22;3081;50.584;7.032;2023-09-19T07:53:32;15.40;99.90
6102;DHT22;3081;50.584;7.032;2023-09-19T07:56:04;15.50;99.90
6102;DHT22;3081;50.584;7.032;2023-09-19T07:58:32;15.70;99.90
6102;DHT22;3081;50.584;7.032;2023-09-19T08:01:10;15.80;99.90
6102;DHT22;3081;50.584;7.032;2023-09-19T08:03:39;15.90;99.90
6102;DHT22;3081;50.584;7.032;2023-09-19T08:06:08;16.00;99.90
6102;DHT22;3081;50.584;7.032;2023-09-19T08:08:36;16.20;99.90
6102;DHT22;3081;50.584;7.032;2023-09-19T08:11:04;16.20;99.90
6102;DHT22;3081;50.584;7.032;2023-09-19T08:13:37;16.30;99.90
6102;DHT22;3081;50.584;7.032;2023-09-19T08:16:07;16.20;99.90
6102;DHT22;3081;50.584;7.032;2023-09-19T08:18:35;16.30;99.90
6102;DHT22;3081;50.584;7.032;2023-09-19T08:21:02;16.40;99.90
6102;DHT22;3081;50.584;7.032;2023-09-19T08:23:29;16.60;99.90
6102;DHT22;3081;50.584;7.032;2023-09-19T08:25:57;16.80;99.90
6102;DHT22;3081;50.584;7.032;2023-09-19T08:28:28;17.10;99.90
6102;DHT22;3081;50.584;7.032;2023-09-19T08:30:55;17.20;99.90
6102;DHT22;3081;50.584;7.032;2023-09-19T08:33:23;17.30;99.90
6102;DHT22;3081;50.584;7.032;2023-09-19T08:35:52;17.30;99.90
6102;DHT22;3081;50.584;7.032;2023-09-19T08:38:18;17.40;99.90
6102;DHT22;3081;50.584;7.032;2023-09-19T08:40:45;17.60;99.90
6102;DHT22;3081;50.584;7.032;2023-09-19T08:43:12;17.80;99.90
6102;DHT22;3081;50.584;7.032;2023-09-19T08:45:39;17.90;99.90
6102;DHT22;3081;50.584;7.032;2023-09-19T08:48:16;17.70;99.90
6102;DHT22;3081;50.584;7.032;2023-09-19T08:50:48;17.70;99.90
6102;DHT22;3081;50.584;7.032;2023-09-19T08:53:27;17.90;99.90
6102;DHT22;3081;50.584;7.032;2023-09-19T08:55:59;18.20;99.90
6102;DHT22;3081;50.584;7.032;2023-09-19T08:58:31;18.30;99.90
6102;DHT22;3081;50.584;7.032;2023-09-19T09:01:01;18.70;99.90
6102;DHT22;3081;50.584;7.032;2023-09-19T09:03:32;19.40;99.90
6102;DHT22;3081;50.584;7.032;2023-09-19T09:06:01;19.80;99.90
6102;DHT22;3081;50.584;7.032;2023-09-19T09:08:30;20.00;99.90
6102;DHT22;3081;50.584;7.032;2023-09-19T09:10:58;20.10;99.90
6102;DHT22;3081;50.584;7.032;2023-09-19T09:13:26;20.30;99.90
6102;DHT22;3081;50.584;7.032;2023-09-19T09:15:53;20.50;99.90
6102;DHT22;3081;50.584;7.032;2023-09-19T09:18:20;20.70;99.90
6102;DHT22;3081;50.584;7.032;2023-09-19T09:20:48;20.80;99.90
6102;DHT22;3081;50.584;7.032;2023-09-19T09:23:15;20.60;99.90
6102;DHT22;3081;50.584;7.032;2023-09-19T09:25:50;20.60;99.90
6102;DHT22;3081;50.584;7.032;2023-09-19T09:28:21;20.70;99.90
6102;DHT22;3081;50.584;7.032;2023-09-19T09:30:48;21.00;99.90
6102;DHT22;3081;50.584;7.032;2023-09-19T09:33:16;21.30;99.90
6102;DHT22;3081;50.584;7.032;2023-09-19T09:35:51;21.70;99.90
6102;DHT22;3081;50.584;7.032;2023-09-19T09:38:23;21.90;99.90
6102;DHT22;3081;50.584;7.032;2023-09-19T09:40:55;21.90;99.90
6102;DHT22;3081;50.584;7.032;2023-09-19T09:43:34;22.30;99.90
6102;DHT22;3081;50.584;7.032;2023-09-19T09:46:12;22.50;99.90
6102;DHT22;3081;50.584;7.032;2023-09-19T09:49:00;22.80;99.90
6102;DHT22;3081;50.584;7.032;2023-09-19T09:51:59;23.00;99.90
6102;DHT22;3081;50.584;7.032;2023-09-19T09:54:31;23.50;99.90
6102;DHT22;3081;50.584;7.032;2023-09-19T09:57:05;23.60;99.90
6102;DHT22;3081;50.584;7.032;2023-09-19T09:59:47;23.40;99.90
6102;DHT22;3081;50.584;7.032;2023-09-19T10:02:16;22.60;99.90
6102;DHT22;3081;50.584;7.032;2023-09-19T10:04:49;22.40;99.90
6102;DHT22;3081;50.584;7.032;2023-09-19T10:07:26;22.70;99.90
6102;DHT22;3081;50.584;7.032;2023-09-19T10:09:58;22.50;99.90
6102;DHT22;3081;50.584;7.032;2023-09-19T10:12:33;22.30;99.90
6102;DHT22;3081;50.584;7.032;2023-09-19T10:15:04;22.50;99.90
6102;DHT22;3081;50.584;7.032;2023-09-19T10:17:34;22.90;99.90
6102;DHT22;3081;50.584;7.032;2023-09-19T10:20:03;23.30;99.90
6102;DHT22;3081;50.584;7.032;2023-09-19T10:22:43;23.10;99.90
6102;DHT22;3081;50.584;7.032;2023-09-19T10:25:24;23.30;99.90
6102;DHT22;3081;50.584;7.032;2023-09-19T10:27:54;23.40;99.90
6102;DHT22;3081;50.584;7.032;2023-09-19T10:30:24;22.90;99.90
6102;DHT22;3081;50.584;7.032;2023-09-19T10:33:00;22.60;99.90
6102;DHT22;3081;50.584;7.032;2023-09-19T10:35:27;22.50;99.90
6102;DHT22;3081;50.584;7.032;2023-09-19T10:37:57;23.40;99.90
6102;DHT22;3081;50.584;7.032;2023-09-19T10:40:27;24.40;99.90
6102;DHT22;3081;50.584;7.032;2023-09-19T10:43:01;25.20;99.90
6102;DHT22;3081;50.584;7.032;2023-09-19T10:45:32;25.30;99.90
6102;DHT22;3081;50.584;7.032;2023-09-19T10:48:00;25.30;99.90
6102;DHT22;3081;50.584;7.032;2023-09-19T10:50:31;25.40;99.90
6102;DHT22;3081;50.584;7.032;2023-09-19T10:53:01;25.70;99.90
6102;DHT22;3081;50.584;7.032;2023-09-19T10:55:31;25.90;99.90
6102;DHT22;3081;50.584;7.032;2023-09-19T10:58:00;26.70;99.90
6102;DHT22;3081;50.584;7.032;2023-09-19T11:00:30;27.10;99.90
6102;DHT22;3081;50.584;7.032;2023-09-19T11:03:24;26.60;99.90
6102;DHT22;3081;50.584;7.032;2023-09-19T11:06:03;26.70;99.90
6102;DHT22;3081;50.584;7.032;2023-09-19T11:08:59;26.90;99.90
6102;DHT22;3081;50.584;7.032;2023-09-19T11:11:50;27.30;99.90
6102;DHT22;3081;50.584;7.032;2023-09-19T11:14:38;26.50;98.90
6102;DHT22;3081;50.584;7.032;2023-09-19T11:17:29;26.40;99.30
6102;DHT22;3081;50.584;7.032;2023-09-19T11:20:19;26.10;98.60
6102;DHT22;3081;50.584;7.032;2023-09-19T11:23:18;25.90;98.70
6102;DHT22;3081;50.584;7.032;2023-09-19T11:25:49;25.90;98.90
6102;DHT22;3081;50.584;7.032;2023-09-19T11:28:35;26.20;97.90
6102;DHT22;3081;50.584;7.032;2023-09-19T11:34:46;25.90;97.60
6102;DHT22;3081;50.584;7.032;2023-09-19T11:40:37;25.40;98.10
6102;DHT22;3081;50.584;7.032;2023-09-19T11:43:30;25.60;97.70
6102;DHT22;3081;50.584;7.032;2023-09-19T11:46:06;25.40;97.20
6102;DHT22;3081;50.584;7.032;2023-09-19T11:48:33;25.00;97.50
6102;DHT22;3081;50.584;7.032;2023-09-19T11:51:12;24.40;97.90
6102;DHT22;3081;50.584;7.032;2023-09-19T11:53:46;24.20;98.60
6102;DHT22;3081;50.584;7.032;2023-09-19T11:56:16;24.10;97.90
6102;DHT22;3081;50.584;7.032;2023-09-19T11:58:44;23.80;98.40
6102;DHT22;3081;50.584;7.032;2023-09-19T12:01:13;24.00;99.40
6102;DHT22;3081;50.584;7.032;2023-09-19T12:03:47;24.50;98.60
6102;DHT22;3081;50.584;7.032;2023-09-19T12:06:17;24.70;98.00
6102;DHT22;3081;50.584;7.032;2023-09-19T12:08:44;25.10;98.00
6102;DHT22;3081;50.584;7.032;2023-09-19T12:11:13;25.30;96.70
6102;DHT22;3081;50.584;7.032;2023-09-19T12:13:42;25.50;97.30
6102;DHT22;3081;50.584;7.032;2023-09-19T12:16:14;26.00;96.90
6102;DHT22;3081;50.584;7.032;2023-09-19T12:18:42;26.20;96.90
6102;DHT22;3081;50.584;7.032;2023-09-19T12:21:23;26.90;97.00
6102;DHT22;3081;50.584;7.032;2023-09-19T12:24:11;27.50;95.60
6102;DHT22;3081;50.584;7.032;2023-09-19T12:26:40;26.90;95.10
6102;DHT22;3081;50.584;7.032;2023-09-19T12:29:20;26.80;95.20
6102;DHT22;3081;50.584;7.032;2023-09-19T12:31:54;27.00;94.60
6102;DHT22;3081;50.584;7.032;2023-09-19T12:34:24;26.90;94.50
6102;DHT22;3081;50.584;7.032;2023-09-19T12:37:10;27.40;94.20
6102;DHT22;3081;50.584;7.032;2023-09-19T12:39:47;27.60;93.70
6102;DHT22;3081;50.584;7.032;2023-09-19T12:42:17;27.50;93.60
6102;DHT22;3081;50.584;7.032;2023-09-19T12:44:46;27.40;93.60
6102;DHT22;3081;50.584;7.032;2023-09-19T12:47:14;27.40;93.50
6102;DHT22;3081;50.584;7.032;2023-09-19T12:50:13;27.30;93.50
6102;DHT22;3081;50.584;7.032;2023-09-19T12:52:45;27.20;93.30
6102;DHT22;3081;50.584;7.032;2023-09-19T12:55:21;27.20;92.80
6102;DHT22;3081;50.584;7.032;2023-09-19T12:57:58;27.10;93.30
6102;DHT22;3081;50.584;7.032;2023-09-19T13:00:35;27.50;92.70
6102;DHT22;3081;50.584;7.032;2023-09-19T13:03:13;27.40;92.00
6102;DHT22;3081;50.584;7.032;2023-09-19T13:05:53;26.70;92.30
6102;DHT22;3081;50.584;7.032;2023-09-19T13:08:26;26.40;93.10
6102;DHT22;3081;50.584;7.032;2023-09-19T13:11:02;26.70;92.40
6102;DHT22;3081;50.584;7.032;2023-09-19T13:13:29;27.00;92.60
6102;DHT22;3081;50.584;7.032;2023-09-19T13:15:56;27.50;92.40
6102;DHT22;3081;50.584;7.032;2023-09-19T13:18:23;28.30;91.70
6102;DHT22;3081;50.584;7.032;2023-09-19T13:21:06;28.30;90.60
6102;DHT22;3081;50.584;7.032;2023-09-19T13:23:37;27.90;91.10
6102;DHT22;3081;50.584;7.032;2023-09-19T13:26:05;27.40;91.80
6102;DHT22;3081;50.584;7.032;2023-09-19T13:28:33;27.30;91.70
6102;DHT22;3081;50.584;7.032;2023-09-19T13:31:01;27.40;91.80
6102;DHT22;3081;50.584;7.032;2023-09-19T13:33:28;27.90;91.10
6102;DHT22;3081;50.584;7.032;2023-09-19T13:35:56;27.70;91.50
6102;DHT22;3081;50.584;7.032;2023-09-19T13:38:23;27.80;91.70
6102;DHT22;3081;50.584;7.032;2023-09-19T13:40:52;27.90;91.10
6102;DHT22;3081;50.584;7.032;2023-09-19T13:43:19;28.50;90.60
6102;DHT22;3081;50.584;7.032;2023-09-19T13:45:47;28.70;90.50
6102;DHT22;3081;50.584;7.032;2023-09-19T13:48:15;29.80;88.50
6102;DHT22;3081;50.584;7.032;2023-09-19T13:50:48;30.00;86.80
6102;DHT22;3081;50.584;7.032;2023-09-19T13:53:15;29.70;87.60
6102;DHT22;3081;50.584;7.032;2023-09-19T13:55:43;30.50;87.10
6102;DHT22;3081;50.584;7.032;2023-09-19T13:58:12;30.90;84.70
6102;DHT22;3081;50.584;7.032;2023-09-19T14:00:38;31.60;83.60
6102;DHT22;3081;50.584;7.032;2023-09-19T14:03:05;31.70;82.70
6102;DHT22;3081;50.584;7.032;2023-09-19T14:05:32;31.50;81.50
6102;DHT22;3081;50.584;7.032;2023-09-19T14:07:59;31.40;80.40
6102;DHT22;3081;50.584;7.032;2023-09-19T14:10:28;31.80;79.40
6102;DHT22;3081;50.584;7.032;2023-09-19T14:12:57;32.00;78.70
6102;DHT22;3081;50.584;7.032;2023-09-19T14:15:26;31.70;77.10
6102;DHT22;3081;50.584;7.032;2023-09-19T14:17:56;31.50;77.70
6102;DHT22;3081;50.584;7.032;2023-09-19T14:20:24;31.60;77.30
6102;DHT22;3081;50.584;7.032;2023-09-19T14:22:52;31.50;77.10
6102;DHT22;3081;50.584;7.032;2023-09-19T14:25:19;31.80;76.20
6102;DHT22;3081;50.584;7.032;2023-09-19T14:27:46;32.20;76.60
6102;DHT22;3081;50.584;7.032;2023-09-19T14:30:14;32.30;74.00
6102;DHT22;3081;50.584;7.032;2023-09-19T14:32:42;31.60;74.60
6102;DHT22;3081;50.584;7.032;2023-09-19T14:35:09;31.10;74.30
6102;DHT22;3081;50.584;7.032;2023-09-19T14:37:37;31.10;75.90
6102;DHT22;3081;50.584;7.032;2023-09-19T14:40:06;30.80;75.30
6102;DHT22;3081;50.584;7.032;2023-09-19T14:42:35;30.80;76.30
6102;DHT22;3081;50.584;7.032;2023-09-19T14:45:04;31.30;74.40
6102;DHT22;3081;50.584;7.032;2023-09-19T14:47:32;30.60;74.10
6102;DHT22;3081;50.584;7.032;2023-09-19T14:50:02;29.30;75.90
6102;DHT22;3081;50.584;7.032;2023-09-19T14:52:32;29.30;78.20
6102;DHT22;3081;50.584;7.032;2023-09-19T14:54:59;29.00;78.20
6102;DHT22;3081;50.584;7.032;2023-09-19T14:57:27;28.50;78.60
6102;DHT22;3081;50.584;7.032;2023-09-19T14:59:55;28.60;79.90
6102;DHT22;3081;50.584;7.032;2023-09-19T15:02:22;29.60;77.20
6102;DHT22;3081;50.584;7.032;2023-09-19T15:04:49;30.40;75.90
6102;DHT22;3081;50.584;7.032;2023-09-19T15:07:17;31.10;74.40
6102;DHT22;3081;50.584;7.032;2023-09-19T15:09:45;31.80;73.90
6102;DHT22;3081;50.584;7.032;2023-09-19T15:12:12;33.00;72.10
6102;DHT22;3081;50.584;7.032;2023-09-19T15:14:40;34.10;70.50
6102;DHT22;3081;50.584;7.032;2023-09-19T15:17:08;34.70;69.60
6102;DHT22;3081;50.584;7.032;2023-09-19T15:19:35;35.40;67.20
6102;DHT22;3081;50.584;7.032;2023-09-19T15:22:03;35.50;65.30
6102;DHT22;3081;50.584;7.032;2023-09-19T15:24:32;34.80;67.30
6102;DHT22;3081;50.584;7.032;2023-09-19T15:26:59;35.90;67.10
6102;DHT22;3081;50.584;7.032;2023-09-19T15:29:26;36.10;64.60
6102;DHT22;3081;50.584;7.032;2023-09-19T15:31:55;34.40;64.20
6102;DHT22;3081;50.584;7.032;2023-09-19T15:34:24;31.00;68.40
6102;DHT22;3081;50.584;7.032;2023-09-19T15:36:51;28.30;73.90
6102;DHT22;3081;50.584;7.032;2023-09-19T15:39:18;27.30;77.10
6102;DHT22;3081;50.584;7.032;2023-09-19T15:41:49;27.40;77.10
6102;DHT22;3081;50.584;7.032;2023-09-19T15:44:18;28.80;75.80
6102;DHT22;3081;50.584;7.032;2023-09-19T15:46:45;29.70;74.30
6102;DHT22;3081;50.584;7.032;2023-09-19T15:49:13;31.10;72.50
6102;DHT22;3081;50.584;7.032;2023-09-19T15:51:39;31.50;71.90
6102;DHT22;3081;50.584;7.032;2023-09-19T15:54:10;31.90;70.60
6102;DHT22;3081;50.584;7.032;2023-09-19T15:56:39;30.70;71.60
6102;DHT22;3081;50.584;7.032;2023-09-19T15:59:08;29.50;73.80
6102;DHT22;3081;50.584;7.032;2023-09-19T16:01:38;30.60;73.80
6102;DHT22;3081;50.584;7.032;2023-09-19T16:04:06;31.70;73.00
6102;DHT22;3081;50.584;7.032;2023-09-19T16:06:34;30.60;71.50
6102;DHT22;3081;50.584;7.032;2023-09-19T16:09:02;29.70;75.00
6102;DHT22;3081;50.584;7.032;2023-09-19T16:11:32;29.20;75.90
6102;DHT22;3081;50.584;7.032;2023-09-19T16:13:59;28.20;76.30
6102;DHT22;3081;50.584;7.032;2023-09-19T16:16:28;28.10;78.00
6102;DHT22;3081;50.584;7.032;2023-09-19T16:19:00;27.20;79.00
6102;DHT22;3081;50.584;7.032;2023-09-19T16:21:29;26.90;80.90
6102;DHT22;3081;50.584;7.032;2023-09-19T16:23:58;28.20;79.90
6102;DHT22;3081;50.584;7.032;2023-09-19T16:26:25;28.90;79.20
6102;DHT22;3081;50.584;7.032;2023-09-19T16:28:54;30.60;77.60